Time;durP1;ratioP1;P1;durP2;ratioP2;P2;SDS_P1;SDS_P2;PMS_P1;PMS_P2;Temp;Humidity;BMP_temperature;BMP_pressure;BME280_temperature;BME280_humidity;BME280_pressure;Samples;Min_cycle;Max_cycle;Signal;HPM_P1;HPM_P2
2021/01/21 00:01:42;;;;;;;7.32;1.95;;;13.90;59.70;;;;;;5030377;28;20494;-71
2021/01/21 00:04:07;;;;;;;4.65;1.67;;;13.80;59.70;;;;;;5035377;28;20047;-71
2021/01/21 00:06:34;;;;;;;4.93;1.90;;;13.80;59.70;;;;;;5031765;28;20723;-71
2021/01/21 00:09:00;;;;;;;4.28;2.00;;;13.80;59.80;;;;;;5049749;28;20029;-71
2021/01/21 00:11:26;;;;;;;4.70;1.70;;;13.80;59.70;;;;;;5050086;28;20029;-71
2021/01/21 00:13:52;;;;;;;4.35;2.28;;;13.80;59.90;;;;;;5048655;28;20037;-71
2021/01/21 00:16:17;;;;;;;5.20;1.67;;;13.80;59.80;;;;;;5049778;28;20113;-70
2021/01/21 00:18:43;;;;;;;7.18;2.55;;;13.80;59.80;;;;;;5037770;28;20195;-71
2021/01/21 00:21:09;;;;;;;4.13;1.83;;;13.70;59.80;;;;;;5021924;28;20516;-71
2021/01/21 00:23:34;;;;;;;3.53;1.90;;;13.70;59.70;;;;;;5049176;28;20029;-71
2021/01/21 00:26:00;;;;;;;3.83;1.40;;;13.80;59.60;;;;;;5043315;28;20458;-71
2021/01/21 00:28:26;;;;;;;5.55;1.98;;;13.80;59.60;;;;;;5038805;28;20065;-71
2021/01/21 00:30:52;;;;;;;6.18;2.25;;;13.80;59.50;;;;;;5046744;28;20422;-70
2021/01/21 00:33:19;;;;;;;2.70;1.45;;;13.80;59.60;;;;;;5047579;28;20061;-71
2021/01/21 00:35:44;;;;;;;4.47;1.77;;;13.70;59.50;;;;;;5047347;28;20057;-71
2021/01/21 00:38:10;;;;;;;4.20;1.65;;;13.80;59.80;;;;;;5014596;28;20466;-71
2021/01/21 00:40:36;;;;;;;5.10;1.65;;;13.70;59.80;;;;;;5048505;28;20080;-71
2021/01/21 00:43:02;;;;;;;7.25;1.92;;;13.70;60.00;;;;;;5046812;28;20091;-71
2021/01/21 00:45:28;;;;;;;5.75;1.65;;;13.70;60.10;;;;;;5048625;28;20044;-70
2021/01/21 00:47:53;;;;;;;3.75;1.83;;;13.70;60.10;;;;;;5031130;28;20395;-71
2021/01/21 00:50:19;;;;;;;7.65;1.70;;;13.70;60.10;;;;;;5048696;28;20105;-71
2021/01/21 00:52:45;;;;;;;4.68;1.95;;;13.60;60.20;;;;;;5048081;28;20074;-71
2021/01/21 00:55:11;;;;;;;4.78;1.83;;;13.60;60.20;;;;;;5048935;28;20056;-71
2021/01/21 00:57:37;;;;;;;4.90;2.20;;;13.60;60.40;;;;;;5034872;28;20561;-70
2021/01/21 01:00:07;;;;;;;4.72;1.60;;;13.60;60.50;;;;;;5069325;28;20111;-71
2021/01/21 01:02:33;;;;;;;4.30;1.60;;;13.60;60.40;;;;;;5054324;28;20031;-71
2021/01/21 01:04:58;;;;;;;5.70;1.92;;;13.60;60.50;;;;;;5072335;28;20593;-71
2021/01/21 01:07:24;;;;;;;5.53;2.03;;;13.70;60.30;;;;;;5072767;28;20028;-71
2021/01/21 01:09:50;;;;;;;4.88;1.90;;;13.70;60.10;;;;;;5070197;28;20406;-71
2021/01/21 01:12:15;;;;;;;5.40;2.30;;;13.60;60.00;;;;;;5073358;28;20107;-71
2021/01/21 01:14:41;;;;;;;7.82;2.08;;;13.60;60.10;;;;;;5069387;28;20036;-71
2021/01/21 01:17:06;;;;;;;4.60;1.60;;;13.60;60.10;;;;;;5073052;28;20043;-71
2021/01/21 01:19:32;;;;;;;4.43;2.13;;;13.60;60.00;;;;;;5065432;28;20068;-70
2021/01/21 01:21:57;;;;;;;4.45;2.03;;;13.60;60.00;;;;;;5072911;28;20093;-71
2021/01/21 01:24:23;;;;;;;5.78;1.73;;;13.60;59.90;;;;;;5071591;28;20028;-71
2021/01/21 01:26:49;;;;;;;5.82;2.08;;;13.60;59.90;;;;;;5070999;28;21080;-71
2021/01/21 01:29:15;;;;;;;3.08;1.60;;;13.60;59.70;;;;;;5062858;28;20031;-71
2021/01/21 01:31:41;;;;;;;6.18;1.92;;;13.60;59.80;;;;;;5068012;28;20065;-71
2021/01/21 01:34:06;;;;;;;4.10;1.48;;;13.60;59.50;;;;;;5071805;28;20051;-71
2021/01/21 01:36:32;;;;;;;5.28;1.70;;;13.70;59.50;;;;;;5091578;28;20058;-71
2021/01/21 01:38:57;;;;;;;4.65;1.83;;;13.70;59.30;;;;;;5069241;28;20079;-71
2021/01/21 01:41:27;;;;;;;5.32;1.67;;;13.70;59.10;;;;;;5038012;28;20097;-71
2021/01/21 01:43:52;;;;;;;5.97;1.73;;;13.70;59.00;;;;;;5068735;28;20133;-71
2021/01/21 01:46:18;;;;;;;4.90;1.92;;;13.70;58.90;;;;;;5052612;28;20367;-71
2021/01/21 01:48:44;;;;;;;4.30;1.75;;;13.80;58.60;;;;;;5058934;28;20089;-70
2021/01/21 01:51:10;;;;;;;5.75;2.53;;;13.80;58.90;;;;;;5070691;28;20032;-71
2021/01/21 01:53:35;;;;;;;4.60;1.75;;;13.80;58.50;;;;;;5071438;28;20458;-71
2021/01/21 01:56:02;;;;;;;4.95;1.60;;;13.80;58.30;;;;;;5072946;28;20032;-71
2021/01/21 01:58:30;;;;;;;10.10;2.40;;;13.80;58.50;;;;;;5061422;28;20049;-71
2021/01/21 02:00:56;;;;;;;5.78;1.83;;;13.80;58.20;;;;;;5048401;28;20041;-71
2021/01/21 02:03:22;;;;;;;3.53;1.85;;;13.80;58.30;;;;;;5038842;28;20467;-71
2021/01/21 02:05:49;;;;;;;3.63;1.58;;;13.90;58.00;;;;;;5052246;28;20037;-71
2021/01/21 02:08:15;;;;;;;6.35;1.70;;;13.90;57.70;;;;;;5049937;28;20112;-71
2021/01/21 02:10:41;;;;;;;4.68;1.55;;;13.90;57.50;;;;;;5048790;28;20060;-71
2021/01/21 02:13:07;;;;;;;3.85;1.90;;;13.80;57.70;;;;;;5045385;28;20414;-71
2021/01/21 02:15:58;;;;;;;4.38;1.80;;;13.90;57.70;;;;;;5047764;28;20029;-71
2021/01/21 02:18:33;;;;;;;4.40;1.70;;;14.00;57.40;;;;;;5047138;28;20029;-71
2021/01/21 02:21:30;;;;;;;5.50;1.70;;;14.00;57.30;;;;;;5042713;28;20059;-70
2021/01/21 02:24:33;;;;;;;5.60;1.63;;;14.10;58.90;;;;;;5038525;28;20040;-70
2021/01/21 02:27:03;;;;;;;5.40;2.28;;;14.00;60.60;;;;;;5034506;28;20133;-70
2021/01/21 02:29:34;;;;;;;3.50;1.95;;;14.00;61.20;;;;;;5050470;28;20029;-70
2021/01/21 02:32:08;;;;;;;3.60;1.50;;;13.90;61.20;;;;;;5050576;28;20083;-70
2021/01/21 02:34:50;;;;;;;4.38;1.55;;;13.90;60.90;;;;;;5037151;28;20280;-71
2021/01/21 02:37:24;;;;;;;4.30;1.73;;;13.90;60.80;;;;;;5013982;28;20021;-71
2021/01/21 02:39:53;;;;;;;5.68;2.00;;;13.80;60.40;;;;;;5048419;28;20059;-71
2021/01/21 02:42:19;;;;;;;4.18;1.92;;;13.80;60.80;;;;;;5048478;28;20044;-71
2021/01/21 02:44:47;;;;;;;4.47;1.90;;;13.90;60.60;;;;;;5032048;28;20144;-71
2021/01/21 02:47:14;;;;;;;4.72;2.10;;;13.90;60.50;;;;;;5042854;28;20099;-71
2021/01/21 02:49:40;;;;;;;5.07;1.80;;;13.80;60.40;;;;;;5030554;28;20033;-71
2021/01/21 02:52:14;;;;;;;5.05;1.70;;;13.80;60.40;;;;;;5046655;28;20108;-71
2021/01/21 02:55:03;;;;;;;4.75;1.85;;;13.90;60.80;;;;;;5051164;28;20487;-71
2021/01/21 02:57:44;;;;;;;4.05;1.60;;;14.00;60.90;;;;;;5031688;28;20112;-71
2021/01/21 03:00:11;;;;;;;2.97;1.40;;;14.00;60.90;;;;;;5044165;28;20094;-71
2021/01/21 03:02:50;;;;;;;7.25;2.22;;;14.00;60.90;;;;;;5037595;28;20538;-71
2021/01/21 03:05:18;;;;;;;4.93;2.10;;;14.00;60.70;;;;;;5043830;28;20033;-70
2021/01/21 03:07:44;;;;;;;3.88;1.60;;;14.10;60.40;;;;;;5047165;28;20029;-71
2021/01/21 03:10:10;;;;;;;3.38;1.77;;;14.20;60.30;;;;;;5049589;28;20119;-71
2021/01/21 03:12:36;;;;;;;5.15;1.95;;;14.20;60.00;;;;;;5030693;28;20157;-72
2021/01/21 03:15:05;;;;;;;5.90;2.03;;;14.30;59.70;;;;;;5051170;28;20056;-71
2021/01/21 03:17:31;;;;;;;4.43;1.75;;;14.30;59.90;;;;;;5049999;28;20463;-71
2021/01/21 03:19:56;;;;;;;5.78;1.40;;;14.30;60.30;;;;;;5050196;28;20044;-70
2021/01/21 03:22:22;;;;;;;3.85;1.77;;;14.30;60.80;;;;;;5049219;28;20159;-71
2021/01/21 03:24:48;;;;;;;9.23;2.85;;;14.30;60.60;;;;;;5050760;28;20542;-70
2021/01/21 03:27:14;;;;;;;3.28;1.30;;;14.30;60.40;;;;;;5050012;28;20431;-71
2021/01/21 03:29:39;;;;;;;4.75;1.75;;;14.40;61.10;;;;;;5050854;28;20068;-72
2021/01/21 03:32:05;;;;;;;4.93;1.60;;;14.40;61.00;;;;;;5048539;28;20090;-72
2021/01/21 03:34:31;;;;;;;4.38;1.98;;;14.50;61.10;;;;;;5049393;28;20558;-71
2021/01/21 03:36:57;;;;;;;3.88;1.30;;;14.50;60.70;;;;;;5039792;28;20028;-71
2021/01/21 03:39:23;;;;;;;4.72;1.90;;;14.60;61.40;;;;;;5050536;28;20029;-72
2021/01/21 03:41:49;;;;;;;3.03;1.40;;;14.60;61.60;;;;;;5040216;28;20037;-71
2021/01/21 03:44:15;;;;;;;4.93;1.65;;;14.60;61.50;;;;;;5036537;28;20140;-71
2021/01/21 03:46:41;;;;;;;8.82;2.10;;;14.60;61.50;;;;;;5040961;28;20215;-71
2021/01/21 03:49:06;;;;;;;3.90;1.77;;;14.70;60.70;;;;;;5031489;28;20035;-71
2021/01/21 03:51:32;;;;;;;3.45;1.45;;;14.60;60.00;;;;;;5031852;28;20580;-71
2021/01/21 03:53:58;;;;;;;5.47;1.85;;;14.70;60.00;;;;;;5050543;28;20029;-71
2021/01/21 03:56:23;;;;;;;2.58;1.40;;;14.70;59.60;;;;;;5049341;28;20534;-71
2021/01/21 03:58:49;;;;;;;2.97;1.33;;;14.70;60.00;;;;;;5050053;28;20076;-70
2021/01/21 04:01:14;;;;;;;4.10;1.42;;;14.70;60.00;;;;;;5042123;28;20399;-68
2021/01/21 04:03:41;;;;;;;8.32;1.92;;;14.70;60.70;;;;;;5029443;28;20574;-68
2021/01/21 04:06:06;;;;;;;3.75;1.40;;;14.80;60.90;;;;;;5041757;28;20431;-68
2021/01/21 04:08:32;;;;;;;3.90;1.42;;;14.80;60.80;;;;;;5031747;28;20041;-68
2021/01/21 04:10:58;;;;;;;7.90;1.85;;;14.80;61.60;;;;;;5030476;28;20059;-71
2021/01/21 04:13:23;;;;;;;3.60;1.50;;;14.80;62.20;;;;;;5032228;28;20538;-70
2021/01/21 04:15:49;;;;;;;2.92;1.13;;;14.80;63.60;;;;;;5030437;28;20063;-71
2021/01/21 04:18:15;;;;;;;3.20;1.50;;;14.70;64.30;;;;;;5030981;28;20095;-71
2021/01/21 04:20:41;;;;;;;2.97;1.30;;;14.60;65.00;;;;;;5048262;28;20043;-71
2021/01/21 04:23:07;;;;;;;4.78;1.77;;;14.60;65.30;;;;;;5049895;28;20037;-71
2021/01/21 04:25:32;;;;;;;3.85;1.65;;;14.50;65.90;;;;;;5044929;28;20120;-71
2021/01/21 04:27:58;;;;;;;4.78;1.80;;;14.50;66.80;;;;;;5041245;28;20040;-70
2021/01/21 04:30:24;;;;;;;4.75;1.40;;;14.30;69.20;;;;;;5045238;28;20058;-71
2021/01/21 04:32:50;;;;;;;5.07;1.52;;;13.80;65.50;;;;;;5036976;28;20037;-71
2021/01/21 04:35:16;;;;;;;2.58;0.90;;;13.20;66.40;;;;;;5040958;28;20029;-71
2021/01/21 04:37:42;;;;;;;3.38;0.90;;;12.90;66.90;;;;;;5049351;28;20060;-70
2021/01/21 04:40:08;;;;;;;3.60;1.17;;;12.60;66.40;;;;;;5048290;28;20541;-70
2021/01/21 04:42:34;;;;;;;4.80;1.45;;;12.40;66.20;;;;;;5049328;28;20032;-71
2021/01/21 04:45:00;;;;;;;2.60;0.90;;;12.30;65.70;;;;;;5048145;28;20224;-70
2021/01/21 04:47:27;;;;;;;3.38;0.70;;;12.10;64.40;;;;;;5049061;28;20033;-70
2021/01/21 04:49:53;;;;;;;1.52;0.65;;;12.00;64.40;;;;;;5043467;28;20092;-71
2021/01/21 04:52:21;;;;;;;2.72;0.80;;;12.00;64.70;;;;;;5038357;28;20030;-70
2021/01/21 04:54:57;;;;;;;3.55;0.93;;;11.90;65.00;;;;;;5049098;28;20029;-70
2021/01/21 04:57:38;;;;;;;4.63;0.93;;;11.80;64.80;;;;;;5040134;28;20029;-71
2021/01/21 05:00:05;;;;;;;6.63;1.20;;;11.70;65.60;;;;;;5069820;28;20091;-70
2021/01/21 05:02:32;;;;;;;4.85;1.30;;;11.50;65.80;;;;;;5068438;28;20143;-70
2021/01/21 05:04:58;;;;;;;7.85;2.00;;;11.40;66.10;;;;;;5049003;28;20067;-70
2021/01/21 05:07:25;;;;;;;2.88;0.90;;;11.20;66.60;;;;;;5056410;28;20056;-70
2021/01/21 05:09:52;;;;;;;3.88;1.10;;;11.20;67.20;;;;;;5050263;28;20417;-71
2021/01/21 05:12:17;;;;;;;4.35;0.90;;;11.10;67.50;;;;;;5054971;28;20028;-71
2021/01/21 05:14:43;;;;;;;4.35;1.15;;;11.10;67.40;;;;;;5068951;28;20032;-72
2021/01/21 05:17:09;;;;;;;4.45;1.05;;;11.10;67.20;;;;;;5050902;28;20107;-71
2021/01/21 05:19:35;;;;;;;3.47;1.05;;;11.10;67.20;;;;;;5038917;28;20064;-70
2021/01/21 05:22:01;;;;;;;3.17;1.10;;;11.20;66.80;;;;;;5050209;28;20070;-70
2021/01/21 05:24:27;;;;;;;2.70;0.85;;;11.10;65.80;;;;;;5066955;28;20033;-70
2021/01/21 05:26:55;;;;;;;8.30;1.50;;;11.20;66.10;;;;;;5065114;28;20032;-70
2021/01/21 05:29:21;;;;;;;4.25;1.20;;;11.20;65.80;;;;;;5065959;28;20024;-70
2021/01/21 05:31:48;;;;;;;3.90;0.93;;;11.10;65.70;;;;;;5068053;28;20028;-70
2021/01/21 05:34:18;;;;;;;5.15;1.05;;;11.10;65.60;;;;;;5061561;28;20560;-70
2021/01/21 05:36:44;;;;;;;4.55;1.10;;;11.00;65.70;;;;;;5066151;28;20408;-70
2021/01/21 05:39:10;;;;;;;4.60;1.13;;;11.10;65.60;;;;;;5068904;28;20036;-70
2021/01/21 05:41:37;;;;;;;3.85;1.00;;;11.00;65.60;;;;;;5050697;28;20350;-70
2021/01/21 05:44:06;;;;;;;6.45;1.52;;;11.10;65.50;;;;;;5062649;28;20029;-70
2021/01/21 05:46:35;;;;;;;5.10;1.85;;;11.10;65.10;;;;;;5061087;28;20032;-70
2021/01/21 05:49:01;;;;;;;3.45;0.93;;;11.10;64.90;;;;;;5070300;28;20031;-70
2021/01/21 05:51:28;;;;;;;5.85;1.42;;;11.20;64.60;;;;;;5054693;28;20170;-70
2021/01/21 05:53:55;;;;;;;5.30;1.15;;;11.10;64.40;;;;;;5071410;28;20039;-70
2021/01/21 05:56:25;;;;;;;6.38;1.58;;;11.10;64.80;;;;;;5054919;28;20036;-70
2021/01/21 05:58:54;;;;;;;10.32;2.08;;;11.10;64.80;;;;;;5057047;28;20092;-70
2021/01/21 06:01:23;;;;;;;11.60;1.63;;;11.10;64.80;;;;;;5039799;28;20386;-70
2021/01/21 06:03:49;;;;;;;4.03;1.15;;;11.10;64.80;;;;;;5040493;28;20025;-70
2021/01/21 06:06:15;;;;;;;8.93;2.47;;;11.20;64.80;;;;;;5041300;28;20037;-70
2021/01/21 06:08:42;;;;;;;6.07;1.17;;;11.20;64.80;;;;;;5029489;28;20025;-70
2021/01/21 06:11:09;;;;;;;4.78;1.20;;;11.20;64.50;;;;;;5050136;28;20508;-71
2021/01/21 06:13:43;;;;;;;6.55;1.55;;;11.30;64.30;;;;;;5036462;28;20025;-70
2021/01/21 06:16:10;;;;;;;8.77;2.05;;;11.20;63.80;;;;;;5038178;28;20108;-70
2021/01/21 06:18:36;;;;;;;6.85;1.27;;;11.20;64.20;;;;;;5049678;28;20037;-70
2021/01/21 06:21:03;;;;;;;22.60;2.45;;;11.10;64.10;;;;;;5052036;28;20143;-70
2021/01/21 06:23:31;;;;;;;6.93;2.70;;;11.10;64.30;;;;;;5033677;28;20040;-71
2021/01/21 06:25:58;;;;;;;6.80;1.75;;;11.10;64.50;;;;;;5051913;28;20025;-70
2021/01/21 06:28:26;;;;;;;8.35;2.53;;;11.00;63.50;;;;;;5029372;28;20037;-71
2021/01/21 06:30:56;;;;;;;4.78;1.48;;;11.00;63.00;;;;;;5044966;28;20137;-70
2021/01/21 06:33:26;;;;;;;5.75;1.27;;;10.90;60.80;;;;;;5048355;28;20025;-71
2021/01/21 06:35:59;;;;;;;8.00;1.70;;;10.90;61.20;;;;;;5025364;28;20034;-70
2021/01/21 06:38:38;;;;;;;4.95;1.38;;;10.80;61.10;;;;;;5041129;28;20056;-71
2021/01/21 06:41:16;;;;;;;8.95;1.65;;;10.80;61.10;;;;;;5051380;28;20120;-71
2021/01/21 06:43:42;;;;;;;6.18;1.42;;;10.70;61.10;;;;;;5050587;28;20036;-71
2021/01/21 06:46:12;;;;;;;11.60;2.50;;;10.80;61.30;;;;;;5038980;28;20120;-71
2021/01/21 06:48:37;;;;;;;8.20;2.00;;;10.90;61.10;;;;;;5042814;28;20037;-71
2021/01/21 06:51:08;;;;;;;7.85;2.45;;;10.90;60.60;;;;;;5039402;28;20044;-71
2021/01/21 06:53:35;;;;;;;15.23;2.40;;;11.00;60.30;;;;;;5037836;28;20488;-71
2021/01/21 06:56:01;;;;;;;9.43;3.33;;;11.00;59.90;;;;;;5033333;28;20025;-71
2021/01/21 06:58:45;;;;;;;9.07;1.70;;;10.90;59.20;;;;;;5050800;28;20053;-72
2021/01/21 07:01:32;;;;;;;7.85;2.42;;;10.80;59.40;;;;;;5039438;28;20361;-70
2021/01/21 07:04:04;;;;;;;10.32;4.13;;;10.70;59.50;;;;;;5036282;28;20025;-70
2021/01/21 07:06:51;;;;;;;6.88;2.45;;;10.70;59.30;;;;;;5043160;28;20044;-71
2021/01/21 07:09:22;;;;;;;7.85;2.50;;;10.70;59.20;;;;;;5032390;28;20091;-70
2021/01/21 07:11:49;;;;;;;13.30;3.47;;;10.70;58.70;;;;;;5033048;28;20032;-71
2021/01/21 07:14:17;;;;;;;9.35;2.35;;;10.70;58.30;;;;;;5050423;28;20033;-70
2021/01/21 07:16:59;;;;;;;7.75;2.60;;;10.60;57.90;;;;;;5048012;28;20076;-70
2021/01/21 07:19:38;;;;;;;11.20;2.20;;;10.60;57.90;;;;;;5039948;28;20033;-70
2021/01/21 07:22:23;;;;;;;6.03;2.15;;;10.60;58.00;;;;;;5048695;28;20471;-73
2021/01/21 07:24:54;;;;;;;9.18;3.22;;;9.60;57.70;;;;;;5018578;28;20048;-72
2021/01/21 07:27:22;;;;;;;8.55;2.22;;;10.50;58.10;;;;;;5003655;28;20028;-71
2021/01/21 07:29:48;;;;;;;8.70;2.50;;;10.50;58.30;;;;;;5002598;28;20033;-70
2021/01/21 07:32:14;;;;;;;12.32;2.38;;;10.50;58.50;;;;;;5042308;28;20064;-71
2021/01/21 07:34:40;;;;;;;8.02;2.30;;;10.50;58.40;;;;;;5041285;28;20099;-70
2021/01/21 07:37:16;;;;;;;9.50;3.65;;;10.50;58.40;;;;;;5046390;28;20095;-71
2021/01/21 07:39:49;;;;;;;6.55;2.30;;;10.40;58.10;;;;;;5049838;28;20029;-71
2021/01/21 07:42:15;;;;;;;6.17;1.97;;;10.40;58.40;;;;;;5044939;28;20033;-70
2021/01/21 07:44:55;;;;;;;6.68;1.63;;;10.40;58.30;;;;;;5027983;28;20034;-71
2021/01/21 07:47:31;;;;;;;5.30;1.52;;;10.40;57.90;;;;;;5040320;28;20056;-70
2021/01/21 07:50:36;;;;;;;4.10;1.60;;;10.30;58.10;;;;;;5012524;28;20124;-70
2021/01/21 07:53:04;;;;;;;9.75;2.67;;;10.30;58.20;;;;;;5040835;28;20635;-70
2021/01/21 07:55:37;;;;;;;4.60;1.90;;;10.20;58.20;;;;;;5023709;28;20037;-70
2021/01/21 07:58:35;;;;;;;7.10;1.77;;;10.30;57.90;;;;;;5012178;28;20156;-70
2021/01/21 08:01:06;;;;;;;5.28;1.30;;;10.30;57.80;;;;;;5062285;28;20036;-71
2021/01/21 08:03:37;;;;;;;5.32;1.38;;;10.30;58.00;;;;;;5056691;28;20127;-71
2021/01/21 08:06:16;;;;;;;7.57;2.10;;;10.40;57.80;;;;;;5063271;28;20047;-71
2021/01/21 08:08:47;;;;;;;8.48;1.92;;;10.40;57.90;;;;;;5061128;28;20128;-71
2021/01/21 08:11:17;;;;;;;7.10;1.92;;;10.50;57.40;;;;;;5065954;28;20095;-70
2021/01/21 08:13:43;;;;;;;6.13;1.90;;;10.50;57.60;;;;;;5061922;28;20017;-71
2021/01/21 08:16:16;;;;;;;8.40;1.88;;;10.50;57.60;;;;;;5063239;28;20032;-71
2021/01/21 08:18:42;;;;;;;;;;;10.40;58.10;;;;;;5056862;28;20028;-73
2021/01/21 08:21:34;;;;;;;5.85;2.00;;;10.70;57.40;;;;;;5051667;28;19920;-71
2021/01/21 08:24:02;;;;;;;9.82;2.05;;;10.80;57.10;;;;;;5048212;28;20114;-71
2021/01/21 08:26:30;;;;;;;7.50;1.95;;;10.90;56.90;;;;;;5052723;28;20135;-70
2021/01/21 08:28:56;;;;;;;11.07;3.38;;;10.90;56.80;;;;;;5061877;28;20024;-71
2021/01/21 08:31:41;;;;;;;8.55;2.50;;;10.90;56.80;;;;;;5066494;28;20104;-71
2021/01/21 08:34:26;;;;;;;9.40;2.65;;;11.00;56.90;;;;;;5055356;28;20020;-70
2021/01/21 08:37:03;;;;;;;10.07;2.10;;;11.00;56.70;;;;;;5052281;28;20049;-71
2021/01/21 08:39:29;;;;;;;9.40;2.00;;;11.10;56.80;;;;;;5049970;28;20471;-71
2021/01/21 08:41:55;;;;;;;8.35;2.30;;;11.30;56.30;;;;;;5048852;28;20131;-71
2021/01/21 08:44:21;;;;;;;10.60;2.22;;;11.90;55.70;;;;;;5036388;28;20115;-71
2021/01/21 08:46:57;;;;;;;10.32;2.65;;;12.80;53.60;;;;;;5055147;28;20029;-72
2021/01/21 08:49:23;;;;;;;10.40;2.78;;;13.20;51.80;;;;;;5052978;28;20048;-72
2021/01/21 08:52:04;;;;;;;8.65;1.88;;;13.30;51.50;;;;;;5050189;28;20033;-72
2021/01/21 08:54:29;;;;;;;7.78;2.40;;;13.10;51.70;;;;;;5049261;28;20351;-72
2021/01/21 08:57:11;;;;;;;9.02;2.47;;;13.10;52.50;;;;;;5069659;28;20033;-71
2021/01/21 08:59:39;;;;;;;12.00;2.97;;;13.90;51.50;;;;;;5065938;28;20054;-71
2021/01/21 09:02:05;;;;;;;9.80;2.50;;;15.10;48.80;;;;;;5050058;28;20324;-72
2021/01/21 09:04:35;;;;;;;6.93;1.58;;;16.40;46.40;;;;;;5055037;28;20312;-72
2021/01/21 09:07:01;;;;;;;7.45;2.05;;;17.50;44.70;;;;;;5053325;28;20064;-69
2021/01/21 09:09:32;;;;;;;6.85;2.50;;;18.30;43.00;;;;;;5052358;28;20163;-69
2021/01/21 09:12:15;;;;;;;10.10;2.55;;;18.60;41.60;;;;;;5067358;28;20501;-69
2021/01/21 09:14:44;;;;;;;8.90;1.98;;;18.80;41.50;;;;;;5069071;28;20024;-70
2021/01/21 09:17:17;;;;;;;8.60;2.30;;;19.00;41.30;;;;;;5066802;28;20112;-70
2021/01/21 09:19:44;;;;;;;9.75;2.38;;;18.40;41.70;;;;;;5054005;28;20036;-70
2021/01/21 09:22:15;;;;;;;8.43;1.88;;;17.40;43.30;;;;;;5067730;28;20055;-69
2021/01/21 09:24:59;;;;;;;8.43;2.60;;;16.50;45.10;;;;;;5068507;28;20491;-70
2021/01/21 09:27:25;;;;;;;8.15;2.53;;;15.60;47.20;;;;;;5068494;28;20048;-70
2021/01/21 09:29:55;;;;;;;7.30;2.05;;;15.00;48.80;;;;;;5071621;28;20504;-69
2021/01/21 09:32:44;;;;;;;11.68;2.92;;;14.40;50.20;;;;;;5070468;28;20070;-70
2021/01/21 09:35:14;;;;;;;9.70;2.47;;;13.90;51.70;;;;;;5058750;28;20061;-71
2021/01/21 09:37:42;;;;;;;5.80;1.52;;;13.50;53.00;;;;;;5062537;28;20032;-71
2021/01/21 09:40:19;;;;;;;13.85;2.95;;;13.20;54.00;;;;;;5057727;28;20065;-72
2021/01/21 09:42:45;;;;;;;10.32;2.50;;;12.90;54.90;;;;;;5061543;28;20036;-71
2021/01/21 09:45:12;;;;;;;11.07;2.28;;;12.80;55.50;;;;;;5058409;28;20037;-71
2021/01/21 09:47:39;;;;;;;10.88;2.10;;;12.70;56.00;;;;;;5048739;28;20083;-71
2021/01/21 09:50:06;;;;;;;10.02;2.42;;;12.60;56.20;;;;;;5051259;28;20036;-71
2021/01/21 09:52:33;;;;;;;15.18;2.28;;;12.50;56.50;;;;;;5056082;28;20060;-71
2021/01/21 09:54:59;;;;;;;11.95;2.03;;;12.50;56.90;;;;;;5072059;28;20369;-71
2021/01/21 09:57:26;;;;;;;5.70;2.20;;;12.40;57.00;;;;;;5071578;28;20033;-71
2021/01/21 09:59:51;;;;;;;10.40;2.83;;;12.40;57.00;;;;;;5034077;28;20408;-71
2021/01/21 10:02:17;;;;;;;11.00;2.58;;;12.40;57.20;;;;;;5044879;28;20048;-71
2021/01/21 10:04:43;;;;;;;8.18;2.20;;;12.30;57.30;;;;;;5025057;28;20043;-71
2021/01/21 10:07:08;;;;;;;8.70;2.58;;;12.40;57.70;;;;;;5050455;28;20090;-71
2021/01/21 10:09:35;;;;;;;10.63;3.50;;;12.50;57.50;;;;;;5049238;28;20082;-71
2021/01/21 10:12:01;;;;;;;7.30;2.22;;;12.50;57.30;;;;;;5017086;28;20033;-71
2021/01/21 10:14:27;;;;;;;8.95;2.45;;;12.50;57.30;;;;;;5044761;28;20128;-72
2021/01/21 10:16:53;;;;;;;12.25;2.67;;;12.60;57.20;;;;;;5011601;28;20032;-72
2021/01/21 10:19:19;;;;;;;12.57;2.67;;;12.70;57.20;;;;;;5013222;28;20040;-71
2021/01/21 10:21:44;;;;;;;8.50;1.80;;;12.60;57.00;;;;;;5016989;28;20033;-71
2021/01/21 10:24:10;;;;;;;10.90;3.40;;;12.60;57.00;;;;;;5019265;28;20038;-71
2021/01/21 10:26:36;;;;;;;6.65;1.95;;;12.60;57.10;;;;;;5032884;28;20045;-72
2021/01/21 10:29:01;;;;;;;6.63;2.28;;;12.60;57.60;;;;;;5043289;28;20030;-71
2021/01/21 10:31:27;;;;;;;9.70;3.05;;;12.60;57.30;;;;;;5026707;28;20108;-71
2021/01/21 10:33:53;;;;;;;10.15;2.22;;;12.80;57.30;;;;;;5029330;28;20033;-71
2021/01/21 10:36:19;;;;;;;10.80;2.95;;;13.00;56.90;;;;;;5020676;28;20443;-71
2021/01/21 10:38:44;;;;;;;11.55;2.17;;;13.00;55.90;;;;;;5049466;28;20029;-71
2021/01/21 10:41:10;;;;;;;10.63;3.10;;;12.90;56.20;;;;;;5051179;28;20068;-71
2021/01/21 10:43:36;;;;;;;8.10;2.35;;;12.80;56.60;;;;;;5052202;28;20479;-70
2021/01/21 10:46:03;;;;;;;9.52;2.58;;;12.80;56.80;;;;;;5049249;28;20040;-72
2021/01/21 10:48:29;;;;;;;6.90;1.98;;;12.70;57.10;;;;;;5031239;28;20037;-72
2021/01/21 10:50:55;;;;;;;9.80;3.17;;;12.70;57.20;;;;;;5032925;28;20044;-71
2021/01/21 10:53:20;;;;;;;20.30;2.58;;;12.60;57.10;;;;;;5029514;28;20029;-72
2021/01/21 10:55:46;;;;;;;7.50;1.40;;;12.60;57.20;;;;;;5051067;28;20460;-71
2021/01/21 10:58:13;;;;;;;9.30;2.25;;;12.60;57.20;;;;;;5024877;28;20129;-71
2021/01/21 11:00:40;;;;;;;5.95;1.73;;;12.60;57.30;;;;;;5029415;28;20045;-71
2021/01/21 11:03:06;;;;;;;8.85;1.90;;;12.70;57.20;;;;;;5051515;28;20029;-72
2021/01/21 11:05:32;;;;;;;5.90;1.58;;;12.70;57.10;;;;;;5044037;28;20104;-71
2021/01/21 11:07:57;;;;;;;7.10;2.15;;;12.70;57.10;;;;;;5013593;28;20202;-71
2021/01/21 11:10:23;;;;;;;6.60;2.13;;;12.80;56.80;;;;;;5044591;28;20467;-72
2021/01/21 11:12:49;;;;;;;7.65;1.90;;;12.90;56.60;;;;;;5021302;28;20029;-71
2021/01/21 11:15:16;;;;;;;5.18;1.90;;;12.90;56.60;;;;;;5045689;28;20035;-71
2021/01/21 11:17:45;;;;;;;9.73;2.03;;;12.90;56.60;;;;;;5019163;28;20055;-71
2021/01/21 11:20:14;;;;;;;7.13;2.03;;;12.90;56.50;;;;;;5048431;28;20161;-72
2021/01/21 11:22:41;;;;;;;7.55;2.22;;;12.80;56.70;;;;;;5039723;28;20488;-71
2021/01/21 11:25:08;;;;;;;9.88;1.90;;;12.70;56.70;;;;;;5049783;28;20443;-71
2021/01/21 11:27:35;;;;;;;8.30;1.92;;;12.70;57.00;;;;;;5050801;28;20078;-71
2021/01/21 11:30:03;;;;;;;6.75;2.45;;;12.70;56.80;;;;;;5013023;28;20126;-71
2021/01/21 11:32:28;;;;;;;5.95;2.28;;;12.60;57.00;;;;;;5023596;28;20142;-69
2021/01/21 11:34:54;;;;;;;7.70;1.60;;;12.60;57.20;;;;;;5030986;28;20149;-69
2021/01/21 11:37:19;;;;;;;10.60;3.80;;;12.50;57.60;;;;;;5023174;28;20048;-70
2021/01/21 11:39:45;;;;;;;11.88;2.42;;;12.50;57.40;;;;;;4981046;28;20057;-69
2021/01/21 11:42:11;;;;;;;7.95;2.35;;;12.40;57.30;;;;;;5028512;28;20052;-69
2021/01/21 11:44:36;;;;;;;10.52;1.50;;;12.40;57.50;;;;;;5015821;28;20399;-70
2021/01/21 11:47:02;;;;;;;7.47;2.05;;;12.40;57.70;;;;;;5035160;28;20480;-69
2021/01/21 11:49:28;;;;;;;9.80;2.15;;;12.40;57.50;;;;;;5039119;28;20386;-69
2021/01/21 11:51:54;;;;;;;7.47;1.80;;;12.40;57.60;;;;;;5036120;28;20037;-69
2021/01/21 11:54:20;;;;;;;7.80;2.20;;;12.50;57.30;;;;;;5032521;28;20037;-70
2021/01/21 11:56:46;;;;;;;6.93;2.17;;;12.40;57.40;;;;;;5024956;28;20382;-70
2021/01/21 11:59:11;;;;;;;7.03;1.73;;;12.40;57.50;;;;;;5048804;28;20060;-69
2021/01/21 12:01:37;;;;;;;8.40;2.45;;;12.50;57.70;;;;;;5017634;28;20167;-71
2021/01/21 12:04:03;;;;;;;7.15;1.73;;;12.50;57.50;;;;;;5021967;28;20367;-71
2021/01/21 12:06:28;;;;;;;7.28;2.05;;;12.60;57.30;;;;;;5044888;28;20044;-71
2021/01/21 12:08:54;;;;;;;9.95;1.88;;;12.70;57.30;;;;;;5019461;28;20049;-71
2021/01/21 12:11:19;;;;;;;8.57;3.35;;;12.80;56.90;;;;;;5044851;28;20037;-71
2021/01/21 12:13:45;;;;;;;5.38;1.80;;;12.80;57.00;;;;;;5030267;28;20036;-71
2021/01/21 12:16:11;;;;;;;6.90;2.20;;;12.80;56.80;;;;;;5038772;28;20076;-71
2021/01/21 12:18:37;;;;;;;6.80;2.53;;;12.90;56.80;;;;;;5015118;28;20484;-71
2021/01/21 12:21:02;;;;;;;8.63;2.42;;;13.00;56.50;;;;;;5024281;28;20067;-71
2021/01/21 12:23:28;;;;;;;7.30;2.50;;;13.00;56.40;;;;;;5046381;28;20089;-71
2021/01/21 12:25:54;;;;;;;10.20;2.53;;;13.00;56.30;;;;;;5044377;28;20527;-71
2021/01/21 12:28:20;;;;;;;7.15;1.85;;;12.90;56.40;;;;;;5046931;28;20086;-71
2021/01/21 12:30:46;;;;;;;7.22;1.63;;;13.00;56.40;;;;;;5045428;28;20464;-73
2021/01/21 12:33:11;;;;;;;8.25;2.63;;;13.00;56.20;;;;;;4995895;28;20476;-71
2021/01/21 12:35:38;;;;;;;7.57;2.00;;;13.00;56.00;;;;;;5035598;28;20067;-70
2021/01/21 12:38:04;;;;;;;5.95;1.90;;;12.90;56.30;;;;;;5014892;28;20387;-71
2021/01/21 12:40:29;;;;;;;5.13;1.80;;;12.90;56.70;;;;;;5019114;28;20048;-70
2021/01/21 12:42:55;;;;;;;6.63;2.22;;;12.80;56.30;;;;;;5021018;28;20120;-70
2021/01/21 12:45:22;;;;;;;3.90;1.65;;;12.80;56.50;;;;;;5043061;28;20025;-71
2021/01/21 12:47:48;;;;;;;6.55;2.25;;;12.70;56.60;;;;;;5022578;28;20483;-71
2021/01/21 12:50:14;;;;;;;5.00;1.90;;;12.60;56.70;;;;;;5014476;28;20042;-71
2021/01/21 12:52:39;;;;;;;8.80;2.03;;;12.50;57.10;;;;;;5038456;28;20029;-70